sensor_id;sensor_type;location;lat;lon;timestamp;P1;durP1;ratioP1;P2;durP2;ratioP2
30181;SDS011;16990;49.056;9.240;2022-07-26T00:01:43;3.83;;;1.58;;
30181;SDS011;16990;49.056;9.240;2022-07-26T00:04:11;4.25;;;1.50;;
30181;SDS011;16990;49.056;9.240;2022-07-26T00:06:37;4.35;;;1.63;;
30181;SDS011;16990;49.056;9.240;2022-07-26T00:09:04;3.45;;;1.50;;
30181;SDS011;16990;49.056;9.240;2022-07-26T00:11:32;9.15;;;1.60;;
30181;SDS011;16990;49.056;9.240;2022-07-26T00:13:59;5.25;;;1.65;;
30181;SDS011;16990;49.056;9.240;2022-07-26T00:16:26;6.35;;;2.30;;
30181;SDS011;16990;49.056;9.240;2022-07-26T00:18:53;2.08;;;1.20;;
30181;SDS011;16990;49.056;9.240;2022-07-26T00:21:19;10.48;;;1.50;;
30181;SDS011;16990;49.056;9.240;2022-07-26T00:23:46;4.70;;;1.40;;
30181;SDS011;16990;49.056;9.240;2022-07-26T00:26:12;3.78;;;1.67;;
30181;SDS011;16990;49.056;9.240;2022-07-26T00:28:41;11.98;;;1.65;;
30181;SDS011;16990;49.056;9.240;2022-07-26T00:31:08;6.88;;;1.63;;
30181;SDS011;16990;49.056;9.240;2022-07-26T00:33:36;15.13;;;1.50;;
30181;SDS011;16990;49.056;9.240;2022-07-26T00:36:04;5.97;;;1.60;;
30181;SDS011;16990;49.056;9.240;2022-07-26T00:38:31;5.60;;;1.77;;
30181;SDS011;16990;49.056;9.240;2022-07-26T00:40:58;10.65;;;1.25;;
30181;SDS011;16990;49.056;9.240;2022-07-26T00:43:25;4.22;;;1.90;;
30181;SDS011;16990;49.056;9.240;2022-07-26T00:45:53;6.75;;;1.45;;
30181;SDS011;16990;49.056;9.240;2022-07-26T00:48:19;9.32;;;2.00;;
30181;SDS011;16990;49.056;9.240;2022-07-26T00:50:46;6.40;;;1.52;;
30181;SDS011;16990;49.056;9.240;2022-07-26T00:53:13;6.25;;;1.77;;
30181;SDS011;16990;49.056;9.240;2022-07-26T00:55:40;7.72;;;2.08;;
30181;SDS011;16990;49.056;9.240;2022-07-26T00:58:07;3.53;;;1.83;;
30181;SDS011;16990;49.056;9.240;2022-07-26T01:00:33;4.07;;;1.85;;
30181;SDS011;16990;49.056;9.240;2022-07-26T01:03:01;2.47;;;1.50;;
30181;SDS011;16990;49.056;9.240;2022-07-26T01:05:28;3.20;;;1.50;;
30181;SDS011;16990;49.056;9.240;2022-07-26T01:07:55;4.25;;;1.45;;
30181;SDS011;16990;49.056;9.240;2022-07-26T01:10:22;5.22;;;1.60;;
30181;SDS011;16990;49.056;9.240;2022-07-26T01:12:49;1.95;;;1.55;;
30181;SDS011;16990;49.056;9.240;2022-07-26T01:15:16;2.33;;;1.45;;
30181;SDS011;16990;49.056;9.240;2022-07-26T01:17:43;2.78;;;1.50;;
30181;SDS011;16990;49.056;9.240;2022-07-26T01:20:12;3.25;;;1.30;;
30181;SDS011;16990;49.056;9.240;2022-07-26T01:22:41;2.40;;;1.48;;
30181;SDS011;16990;49.056;9.240;2022-07-26T01:25:08;5.15;;;1.50;;
30181;SDS011;16990;49.056;9.240;2022-07-26T01:27:35;2.60;;;1.40;;
30181;SDS011;16990;49.056;9.240;2022-07-26T01:30:05;4.10;;;1.75;;
30181;SDS011;16990;49.056;9.240;2022-07-26T01:32:34;4.63;;;1.38;;
30181;SDS011;16990;49.056;9.240;2022-07-26T01:35:01;5.13;;;1.60;;
30181;SDS011;16990;49.056;9.240;2022-07-26T01:37:27;3.65;;;1.55;;
30181;SDS011;16990;49.056;9.240;2022-07-26T01:39:55;2.35;;;1.55;;
30181;SDS011;16990;49.056;9.240;2022-07-26T01:42:22;3.67;;;1.80;;
30181;SDS011;16990;49.056;9.240;2022-07-26T01:44:48;3.67;;;1.65;;
30181;SDS011;16990;49.056;9.240;2022-07-26T01:47:15;7.55;;;1.63;;
30181;SDS011;16990;49.056;9.240;2022-07-26T01:49:42;2.17;;;1.25;;
30181;SDS011;16990;49.056;9.240;2022-07-26T01:52:09;5.07;;;2.00;;
30181;SDS011;16990;49.056;9.240;2022-07-26T01:54:35;6.45;;;1.85;;
30181;SDS011;16990;49.056;9.240;2022-07-26T01:57:04;6.75;;;1.73;;
30181;SDS011;16990;49.056;9.240;2022-07-26T01:59:30;6.53;;;1.90;;
30181;SDS011;16990;49.056;9.240;2022-07-26T02:01:57;6.60;;;1.85;;
30181;SDS011;16990;49.056;9.240;2022-07-26T02:04:24;4.55;;;1.73;;
30181;SDS011;16990;49.056;9.240;2022-07-26T02:07:07;3.97;;;1.67;;
30181;SDS011;16990;49.056;9.240;2022-07-26T02:09:34;4.10;;;2.13;;
30181;SDS011;16990;49.056;9.240;2022-07-26T02:12:01;6.50;;;1.55;;
30181;SDS011;16990;49.056;9.240;2022-07-26T02:14:29;5.15;;;1.98;;
30181;SDS011;16990;49.056;9.240;2022-07-26T02:16:55;4.07;;;1.58;;
30181;SDS011;16990;49.056;9.240;2022-07-26T02:19:24;7.03;;;1.80;;
30181;SDS011;16990;49.056;9.240;2022-07-26T02:21:50;3.70;;;1.85;;
30181;SDS011;16990;49.056;9.240;2022-07-26T02:24:17;4.82;;;1.90;;
30181;SDS011;16990;49.056;9.240;2022-07-26T02:26:43;3.60;;;1.70;;
30181;SDS011;16990;49.056;9.240;2022-07-26T02:29:10;4.97;;;1.85;;
30181;SDS011;16990;49.056;9.240;2022-07-26T02:31:38;6.20;;;2.00;;
30181;SDS011;16990;49.056;9.240;2022-07-26T02:34:05;6.53;;;1.73;;
30181;SDS011;16990;49.056;9.240;2022-07-26T02:36:31;6.03;;;2.35;;
30181;SDS011;16990;49.056;9.240;2022-07-26T02:38:58;5.10;;;1.38;;
30181;SDS011;16990;49.056;9.240;2022-07-26T02:41:25;3.40;;;1.75;;
30181;SDS011;16990;49.056;9.240;2022-07-26T02:43:51;4.40;;;2.00;;
30181;SDS011;16990;49.056;9.240;2022-07-26T02:46:18;6.68;;;1.90;;
30181;SDS011;16990;49.056;9.240;2022-07-26T02:48:46;3.35;;;1.55;;
30181;SDS011;16990;49.056;9.240;2022-07-26T02:51:13;5.18;;;1.92;;
30181;SDS011;16990;49.056;9.240;2022-07-26T02:53:39;8.27;;;2.35;;
30181;SDS011;16990;49.056;9.240;2022-07-26T02:56:06;3.38;;;1.75;;
30181;SDS011;16990;49.056;9.240;2022-07-26T02:58:33;6.60;;;2.60;;
30181;SDS011;16990;49.056;9.240;2022-07-26T03:00:59;5.93;;;2.20;;
30181;SDS011;16990;49.056;9.240;2022-07-26T03:03:26;4.03;;;2.03;;
30181;SDS011;16990;49.056;9.240;2022-07-26T03:05:54;6.28;;;2.38;;
30181;SDS011;16990;49.056;9.240;2022-07-26T03:08:21;5.93;;;3.70;;
30181;SDS011;16990;49.056;9.240;2022-07-26T03:10:47;4.32;;;2.13;;
30181;SDS011;16990;49.056;9.240;2022-07-26T03:13:14;7.53;;;2.72;;
30181;SDS011;16990;49.056;9.240;2022-07-26T03:15:41;4.78;;;2.60;;
30181;SDS011;16990;49.056;9.240;2022-07-26T03:18:07;3.42;;;1.80;;
30181;SDS011;16990;49.056;9.240;2022-07-26T03:20:34;3.30;;;1.90;;
30181;SDS011;16990;49.056;9.240;2022-07-26T03:23:02;7.93;;;2.22;;
30181;SDS011;16990;49.056;9.240;2022-07-26T03:25:29;3.72;;;2.10;;
30181;SDS011;16990;49.056;9.240;2022-07-26T03:27:55;5.97;;;2.50;;
30181;SDS011;16990;49.056;9.240;2022-07-26T03:30:22;2.80;;;1.77;;
30181;SDS011;16990;49.056;9.240;2022-07-26T03:32:49;3.17;;;1.95;;
30181;SDS011;16990;49.056;9.240;2022-07-26T03:35:16;8.30;;;2.38;;
30181;SDS011;16990;49.056;9.240;2022-07-26T03:37:43;7.43;;;2.10;;
30181;SDS011;16990;49.056;9.240;2022-07-26T03:40:11;3.78;;;1.70;;
30181;SDS011;16990;49.056;9.240;2022-07-26T03:42:38;4.68;;;2.10;;
30181;SDS011;16990;49.056;9.240;2022-07-26T03:45:05;8.65;;;2.20;;
30181;SDS011;16990;49.056;9.240;2022-07-26T03:47:33;9.50;;;2.10;;
30181;SDS011;16990;49.056;9.240;2022-07-26T03:50:01;4.57;;;2.17;;
30181;SDS011;16990;49.056;9.240;2022-07-26T03:52:28;3.63;;;1.80;;
30181;SDS011;16990;49.056;9.240;2022-07-26T03:54:54;9.52;;;2.45;;
30181;SDS011;16990;49.056;9.240;2022-07-26T03:57:22;5.18;;;1.60;;
30181;SDS011;16990;49.056;9.240;2022-07-26T03:59:48;2.90;;;1.45;;
30181;SDS011;16990;49.056;9.240;2022-07-26T04:02:15;4.05;;;1.65;;
30181;SDS011;16990;49.056;9.240;2022-07-26T04:04:41;8.43;;;2.03;;
30181;SDS011;16990;49.056;9.240;2022-07-26T04:07:09;10.68;;;1.75;;
30181;SDS011;16990;49.056;9.240;2022-07-26T04:09:35;4.63;;;2.28;;
30181;SDS011;16990;49.056;9.240;2022-07-26T04:12:02;3.88;;;2.15;;
30181;SDS011;16990;49.056;9.240;2022-07-26T04:14:30;5.90;;;2.03;;
30181;SDS011;16990;49.056;9.240;2022-07-26T04:16:57;4.05;;;2.08;;
30181;SDS011;16990;49.056;9.240;2022-07-26T04:19:24;3.65;;;2.17;;
30181;SDS011;16990;49.056;9.240;2022-07-26T04:21:50;6.78;;;2.35;;
30181;SDS011;16990;49.056;9.240;2022-07-26T04:24:17;3.92;;;1.92;;
30181;SDS011;16990;49.056;9.240;2022-07-26T04:26:44;7.70;;;2.72;;
30181;SDS011;16990;49.056;9.240;2022-07-26T04:29:11;5.40;;;1.45;;
30181;SDS011;16990;49.056;9.240;2022-07-26T04:31:42;5.90;;;1.55;;
30181;SDS011;16990;49.056;9.240;2022-07-26T04:34:16;3.88;;;1.50;;
30181;SDS011;16990;49.056;9.240;2022-07-26T04:36:43;8.68;;;1.52;;
30181;SDS011;16990;49.056;9.240;2022-07-26T04:39:10;2.00;;;1.73;;
30181;SDS011;16990;49.056;9.240;2022-07-26T04:41:36;5.95;;;2.47;;
30181;SDS011;16990;49.056;9.240;2022-07-26T04:44:03;2.80;;;1.63;;
30181;SDS011;16990;49.056;9.240;2022-07-26T04:46:30;9.65;;;1.98;;
30181;SDS011;16990;49.056;9.240;2022-07-26T04:48:58;3.20;;;1.80;;
30181;SDS011;16990;49.056;9.240;2022-07-26T04:51:25;5.15;;;1.70;;
30181;SDS011;16990;49.056;9.240;2022-07-26T04:53:52;6.20;;;1.55;;
30181;SDS011;16990;49.056;9.240;2022-07-26T04:56:18;6.95;;;2.00;;
30181;SDS011;16990;49.056;9.240;2022-07-26T04:58:45;3.75;;;1.90;;
30181;SDS011;16990;49.056;9.240;2022-07-26T05:01:12;4.05;;;1.88;;
30181;SDS011;16990;49.056;9.240;2022-07-26T05:03:39;9.60;;;1.98;;
30181;SDS011;16990;49.056;9.240;2022-07-26T05:06:07;4.45;;;2.03;;
30181;SDS011;16990;49.056;9.240;2022-07-26T05:08:34;7.90;;;2.30;;
30181;SDS011;16990;49.056;9.240;2022-07-26T05:11:01;4.80;;;1.38;;
30181;SDS011;16990;49.056;9.240;2022-07-26T05:13:28;9.77;;;2.08;;
30181;SDS011;16990;49.056;9.240;2022-07-26T05:15:55;5.43;;;1.52;;
30181;SDS011;16990;49.056;9.240;2022-07-26T05:18:21;4.78;;;1.50;;
30181;SDS011;16990;49.056;9.240;2022-07-26T05:20:49;2.55;;;1.60;;
30181;SDS011;16990;49.056;9.240;2022-07-26T05:23:17;3.50;;;1.70;;
30181;SDS011;16990;49.056;9.240;2022-07-26T05:25:44;2.90;;;1.73;;
30181;SDS011;16990;49.056;9.240;2022-07-26T05:28:11;6.75;;;1.40;;
30181;SDS011;16990;49.056;9.240;2022-07-26T05:30:37;9.88;;;1.98;;
30181;SDS011;16990;49.056;9.240;2022-07-26T05:33:04;3.60;;;1.83;;
30181;SDS011;16990;49.056;9.240;2022-07-26T05:35:31;4.93;;;1.70;;
30181;SDS011;16990;49.056;9.240;2022-07-26T05:37:57;2.38;;;1.77;;
30181;SDS011;16990;49.056;9.240;2022-07-26T05:40:26;1.48;;;1.38;;
30181;SDS011;16990;49.056;9.240;2022-07-26T05:42:52;2.63;;;1.45;;
30181;SDS011;16990;49.056;9.240;2022-07-26T05:45:19;15.02;;;2.28;;
30181;SDS011;16990;49.056;9.240;2022-07-26T05:47:48;11.68;;;2.70;;
30181;SDS011;16990;49.056;9.240;2022-07-26T05:50:15;7.35;;;2.10;;
30181;SDS011;16990;49.056;9.240;2022-07-26T05:52:41;3.67;;;1.77;;
30181;SDS011;16990;49.056;9.240;2022-07-26T05:55:08;13.95;;;1.88;;
30181;SDS011;16990;49.056;9.240;2022-07-26T05:57:37;7.65;;;1.95;;
30181;SDS011;16990;49.056;9.240;2022-07-26T06:00:06;5.40;;;2.08;;
30181;SDS011;16990;49.056;9.240;2022-07-26T06:02:34;6.15;;;2.05;;
30181;SDS011;16990;49.056;9.240;2022-07-26T06:05:00;5.32;;;1.80;;
30181;SDS011;16990;49.056;9.240;2022-07-26T06:07:27;14.63;;;2.00;;
30181;SDS011;16990;49.056;9.240;2022-07-26T06:09:54;6.45;;;1.77;;
30181;SDS011;16990;49.056;9.240;2022-07-26T06:12:20;7.82;;;2.05;;
30181;SDS011;16990;49.056;9.240;2022-07-26T06:14:48;19.92;;;2.38;;
30181;SDS011;16990;49.056;9.240;2022-07-26T06:17:15;8.15;;;1.83;;
30181;SDS011;16990;49.056;9.240;2022-07-26T06:19:42;21.13;;;1.90;;
30181;SDS011;16990;49.056;9.240;2022-07-26T06:22:08;7.65;;;1.63;;
30181;SDS011;16990;49.056;9.240;2022-07-26T06:24:35;6.32;;;1.85;;
30181;SDS011;16990;49.056;9.240;2022-07-26T06:27:02;7.43;;;1.80;;
30181;SDS011;16990;49.056;9.240;2022-07-26T06:29:29;7.10;;;2.08;;
30181;SDS011;16990;49.056;9.240;2022-07-26T06:31:57;7.55;;;1.80;;
30181;SDS011;16990;49.056;9.240;2022-07-26T06:34:24;3.58;;;1.52;;
30181;SDS011;16990;49.056;9.240;2022-07-26T06:36:51;15.30;;;2.03;;
30181;SDS011;16990;49.056;9.240;2022-07-26T06:39:17;4.53;;;1.45;;
30181;SDS011;16990;49.056;9.240;2022-07-26T06:41:44;4.05;;;1.73;;
30181;SDS011;16990;49.056;9.240;2022-07-26T06:44:10;3.40;;;1.38;;
30181;SDS011;16990;49.056;9.240;2022-07-26T06:46:37;3.15;;;1.33;;
30181;SDS011;16990;49.056;9.240;2022-07-26T06:49:05;11.85;;;1.90;;
30181;SDS011;16990;49.056;9.240;2022-07-26T06:51:32;6.70;;;1.30;;
30181;SDS011;16990;49.056;9.240;2022-07-26T06:53:59;5.40;;;1.55;;
30181;SDS011;16990;49.056;9.240;2022-07-26T06:56:25;3.47;;;1.55;;
30181;SDS011;16990;49.056;9.240;2022-07-26T06:58:52;9.05;;;1.50;;
30181;SDS011;16990;49.056;9.240;2022-07-26T07:01:20;3.25;;;1.42;;
30181;SDS011;16990;49.056;9.240;2022-07-26T07:03:47;17.25;;;1.60;;
30181;SDS011;16990;49.056;9.240;2022-07-26T07:06:15;4.95;;;1.30;;
30181;SDS011;16990;49.056;9.240;2022-07-26T07:08:42;6.45;;;1.38;;
30181;SDS011;16990;49.056;9.240;2022-07-26T07:11:09;7.28;;;1.23;;
30181;SDS011;16990;49.056;9.240;2022-07-26T07:13:36;5.22;;;1.20;;
30181;SDS011;16990;49.056;9.240;2022-07-26T07:16:02;2.78;;;1.20;;
30181;SDS011;16990;49.056;9.240;2022-07-26T07:18:29;4.43;;;1.10;;
30181;SDS011;16990;49.056;9.240;2022-07-26T07:20:56;4.03;;;1.35;;
30181;SDS011;16990;49.056;9.240;2022-07-26T07:23:24;7.05;;;1.20;;
30181;SDS011;16990;49.056;9.240;2022-07-26T07:25:51;1.83;;;1.17;;
30181;SDS011;16990;49.056;9.240;2022-07-26T07:28:18;2.85;;;1.10;;
30181;SDS011;16990;49.056;9.240;2022-07-26T07:30:45;11.40;;;1.58;;
30181;SDS011;16990;49.056;9.240;2022-07-26T07:33:12;9.27;;;1.58;;
30181;SDS011;16990;49.056;9.240;2022-07-26T07:35:39;6.93;;;1.45;;
30181;SDS011;16990;49.056;9.240;2022-07-26T07:38:06;3.85;;;1.00;;
30181;SDS011;16990;49.056;9.240;2022-07-26T07:40:35;8.68;;;1.10;;
30181;SDS011;16990;49.056;9.240;2022-07-26T07:43:01;2.17;;;1.25;;
30181;SDS011;16990;49.056;9.240;2022-07-26T07:45:28;2.53;;;1.25;;
30181;SDS011;16990;49.056;9.240;2022-07-26T07:47:55;4.07;;;1.13;;
30181;SDS011;16990;49.056;9.240;2022-07-26T07:50:22;3.90;;;1.20;;
30181;SDS011;16990;49.056;9.240;2022-07-26T07:52:49;2.47;;;1.02;;
30181;SDS011;16990;49.056;9.240;2022-07-26T07:55:15;3.55;;;1.33;;
30181;SDS011;16990;49.056;9.240;2022-07-26T07:57:43;10.35;;;1.58;;
30181;SDS011;16990;49.056;9.240;2022-07-26T08:00:10;10.75;;;1.15;;
30181;SDS011;16990;49.056;9.240;2022-07-26T08:02:39;6.68;;;1.30;;
30181;SDS011;16990;49.056;9.240;2022-07-26T08:05:06;2.97;;;1.15;;
30181;SDS011;16990;49.056;9.240;2022-07-26T08:07:33;3.53;;;1.45;;
30181;SDS011;16990;49.056;9.240;2022-07-26T08:10:00;5.25;;;1.05;;
30181;SDS011;16990;49.056;9.240;2022-07-26T08:12:27;5.65;;;1.45;;
30181;SDS011;16990;49.056;9.240;2022-07-26T08:14:55;5.80;;;1.20;;
30181;SDS011;16990;49.056;9.240;2022-07-26T08:17:22;6.85;;;1.20;;
30181;SDS011;16990;49.056;9.240;2022-07-26T08:19:49;4.38;;;1.27;;
30181;SDS011;16990;49.056;9.240;2022-07-26T08:22:15;3.50;;;1.20;;
30181;SDS011;16990;49.056;9.240;2022-07-26T08:24:42;8.52;;;1.52;;
30181;SDS011;16990;49.056;9.240;2022-07-26T08:27:11;2.72;;;1.00;;
30181;SDS011;16990;49.056;9.240;2022-07-26T08:29:37;4.95;;;1.05;;
30181;SDS011;16990;49.056;9.240;2022-07-26T08:32:06;4.47;;;0.88;;
30181;SDS011;16990;49.056;9.240;2022-07-26T08:34:32;6.63;;;0.82;;
30181;SDS011;16990;49.056;9.240;2022-07-26T08:36:59;6.80;;;1.20;;
30181;SDS011;16990;49.056;9.240;2022-07-26T08:39:26;10.70;;;1.10;;
30181;SDS011;16990;49.056;9.240;2022-07-26T08:41:53;7.10;;;1.27;;
30181;SDS011;16990;49.056;9.240;2022-07-26T08:44:19;2.13;;;0.65;;
30181;SDS011;16990;49.056;9.240;2022-07-26T08:46:46;6.07;;;0.75;;
30181;SDS011;16990;49.056;9.240;2022-07-26T08:49:14;3.75;;;1.15;;
30181;SDS011;16990;49.056;9.240;2022-07-26T08:51:42;3.03;;;0.50;;
30181;SDS011;16990;49.056;9.240;2022-07-26T08:54:10;2.70;;;0.68;;
30181;SDS011;16990;49.056;9.240;2022-07-26T08:56:39;3.30;;;0.95;;
30181;SDS011;16990;49.056;9.240;2022-07-26T08:59:11;2.53;;;0.85;;
30181;SDS011;16990;49.056;9.240;2022-07-26T09:01:49;1.67;;;0.95;;
30181;SDS011;16990;49.056;9.240;2022-07-26T09:04:22;6.25;;;1.05;;
30181;SDS011;16990;49.056;9.240;2022-07-26T09:06:54;2.92;;;0.70;;
30181;SDS011;16990;49.056;9.240;2022-07-26T09:09:23;9.10;;;0.93;;
30181;SDS011;16990;49.056;9.240;2022-07-26T09:11:50;3.33;;;0.95;;
30181;SDS011;16990;49.056;9.240;2022-07-26T09:14:16;2.92;;;1.20;;
30181;SDS011;16990;49.056;9.240;2022-07-26T09:16:54;3.50;;;0.90;;
30181;SDS011;16990;49.056;9.240;2022-07-26T09:19:25;4.07;;;1.30;;
30181;SDS011;16990;49.056;9.240;2022-07-26T09:21:53;4.95;;;1.02;;
30181;SDS011;16990;49.056;9.240;2022-07-26T09:24:28;3.60;;;1.10;;
30181;SDS011;16990;49.056;9.240;2022-07-26T09:26:59;2.95;;;1.00;;
30181;SDS011;16990;49.056;9.240;2022-07-26T09:29:27;10.77;;;1.20;;
30181;SDS011;16990;49.056;9.240;2022-07-26T09:32:08;6.30;;;0.88;;
30181;SDS011;16990;49.056;9.240;2022-07-26T09:34:37;3.88;;;1.13;;
30181;SDS011;16990;49.056;9.240;2022-07-26T09:37:04;1.73;;;0.90;;
30181;SDS011;16990;49.056;9.240;2022-07-26T09:39:31;3.28;;;1.00;;
30181;SDS011;16990;49.056;9.240;2022-07-26T09:41:58;4.05;;;0.90;;
30181;SDS011;16990;49.056;9.240;2022-07-26T09:44:33;3.45;;;1.40;;
30181;SDS011;16990;49.056;9.240;2022-07-26T09:47:06;1.08;;;0.80;;
30181;SDS011;16990;49.056;9.240;2022-07-26T09:49:33;3.05;;;1.27;;
30181;SDS011;16990;49.056;9.240;2022-07-26T09:52:01;4.82;;;1.00;;
30181;SDS011;16990;49.056;9.240;2022-07-26T09:54:38;4.35;;;1.20;;
30181;SDS011;16990;49.056;9.240;2022-07-26T09:57:05;3.38;;;0.90;;
30181;SDS011;16990;49.056;9.240;2022-07-26T09:59:32;5.45;;;1.30;;
30181;SDS011;16990;49.056;9.240;2022-07-26T10:01:59;8.13;;;1.17;;
30181;SDS011;16990;49.056;9.240;2022-07-26T10:04:26;3.28;;;1.30;;
30181;SDS011;16990;49.056;9.240;2022-07-26T10:06:53;2.00;;;0.88;;
30181;SDS011;16990;49.056;9.240;2022-07-26T10:09:23;2.15;;;0.90;;
30181;SDS011;16990;49.056;9.240;2022-07-26T10:11:55;6.88;;;1.23;;
30181;SDS011;16990;49.056;9.240;2022-07-26T10:14:33;2.75;;;0.82;;
30181;SDS011;16990;49.056;9.240;2022-07-26T10:20:10;8.85;;;1.10;;
30181;SDS011;16990;49.056;9.240;2022-07-26T10:22:52;4.95;;;1.20;;
30181;SDS011;16990;49.056;9.240;2022-07-26T10:28:22;2.37;;;1.10;;
30181;SDS011;16990;49.056;9.240;2022-07-26T10:30:51;3.67;;;1.00;;
30181;SDS011;16990;49.056;9.240;2022-07-26T10:33:19;1.60;;;0.70;;
30181;SDS011;16990;49.056;9.240;2022-07-26T10:35:48;2.70;;;1.00;;
30181;SDS011;16990;49.056;9.240;2022-07-26T10:38:21;7.30;;;1.25;;
30181;SDS011;16990;49.056;9.240;2022-07-26T10:40:56;1.17;;;0.73;;
30181;SDS011;16990;49.056;9.240;2022-07-26T10:43:23;4.93;;;0.90;;
30181;SDS011;16990;49.056;9.240;2022-07-26T10:45:52;6.07;;;0.95;;
30181;SDS011;16990;49.056;9.240;2022-07-26T10:48:55;6.28;;;1.30;;
30181;SDS011;16990;49.056;9.240;2022-07-26T10:51:23;4.53;;;1.35;;
30181;SDS011;16990;49.056;9.240;2022-07-26T10:53:57;4.13;;;0.85;;
30181;SDS011;16990;49.056;9.240;2022-07-26T10:56:27;3.72;;;0.90;;
30181;SDS011;16990;49.056;9.240;2022-07-26T10:58:54;3.72;;;1.20;;
30181;SDS011;16990;49.056;9.240;2022-07-26T11:01:21;4.22;;;0.75;;
30181;SDS011;16990;49.056;9.240;2022-07-26T11:03:48;4.38;;;0.90;;
30181;SDS011;16990;49.056;9.240;2022-07-26T11:06:16;8.82;;;1.35;;
30181;SDS011;16990;49.056;9.240;2022-07-26T11:08:44;6.35;;;1.63;;
30181;SDS011;16990;49.056;9.240;2022-07-26T11:11:13;3.70;;;0.80;;
30181;SDS011;16990;49.056;9.240;2022-07-26T11:13:55;2.72;;;0.90;;
30181;SDS011;16990;49.056;9.240;2022-07-26T11:16:35;0.98;;;0.85;;
30181;SDS011;16990;49.056;9.240;2022-07-26T11:19:10;0.85;;;0.52;;
30181;SDS011;16990;49.056;9.240;2022-07-26T11:21:37;2.10;;;0.82;;
30181;SDS011;16990;49.056;9.240;2022-07-26T11:24:05;2.75;;;0.88;;
30181;SDS011;16990;49.056;9.240;2022-07-26T11:26:38;4.93;;;1.10;;
30181;SDS011;16990;49.056;9.240;2022-07-26T11:29:07;1.58;;;0.98;;
30181;SDS011;16990;49.056;9.240;2022-07-26T11:31:35;5.07;;;1.27;;
30181;SDS011;16990;49.056;9.240;2022-07-26T11:34:03;0.98;;;0.63;;
30181;SDS011;16990;49.056;9.240;2022-07-26T11:36:32;5.45;;;1.00;;
30181;SDS011;16990;49.056;9.240;2022-07-26T11:38:59;3.03;;;1.02;;
30181;SDS011;16990;49.056;9.240;2022-07-26T11:41:28;1.58;;;0.82;;
30181;SDS011;16990;49.056;9.240;2022-07-26T11:43:56;2.25;;;0.80;;
30181;SDS011;16990;49.056;9.240;2022-07-26T11:46:31;1.52;;;0.65;;
30181;SDS011;16990;49.056;9.240;2022-07-26T11:48:59;14.15;;;0.73;;
30181;SDS011;16990;49.056;9.240;2022-07-26T11:51:26;7.72;;;0.93;;
30181;SDS011;16990;49.056;9.240;2022-07-26T11:53:53;2.72;;;0.80;;
30181;SDS011;16990;49.056;9.240;2022-07-26T11:56:25;1.48;;;0.60;;
30181;SDS011;16990;49.056;9.240;2022-07-26T11:58:54;3.00;;;0.68;;
30181;SDS011;16990;49.056;9.240;2022-07-26T12:01:22;1.27;;;0.80;;
30181;SDS011;16990;49.056;9.240;2022-07-26T12:03:51;8.18;;;1.02;;
30181;SDS011;16990;49.056;9.240;2022-07-26T12:06:21;2.17;;;0.70;;
30181;SDS011;16990;49.056;9.240;2022-07-26T12:08:49;3.63;;;0.60;;
30181;SDS011;16990;49.056;9.240;2022-07-26T12:11:18;2.67;;;0.60;;
30181;SDS011;16990;49.056;9.240;2022-07-26T12:16:34;1.33;;;0.68;;
30181;SDS011;16990;49.056;9.240;2022-07-26T12:19:08;7.53;;;0.88;;
30181;SDS011;16990;49.056;9.240;2022-07-26T12:21:37;2.15;;;0.93;;
30181;SDS011;16990;49.056;9.240;2022-07-26T12:24:08;2.28;;;0.57;;
30181;SDS011;16990;49.056;9.240;2022-07-26T12:26:36;1.23;;;0.73;;
30181;SDS011;16990;49.056;9.240;2022-07-26T12:29:03;2.45;;;0.85;;
30181;SDS011;16990;49.056;9.240;2022-07-26T12:32:00;7.65;;;0.70;;
30181;SDS011;16990;49.056;9.240;2022-07-26T12:34:32;2.20;;;0.88;;
30181;SDS011;16990;49.056;9.240;2022-07-26T12:37:12;2.85;;;0.65;;
30181;SDS011;16990;49.056;9.240;2022-07-26T12:39:56;3.03;;;0.70;;
30181;SDS011;16990;49.056;9.240;2022-07-26T12:42:27;2.75;;;0.90;;
30181;SDS011;16990;49.056;9.240;2022-07-26T12:44:55;6.57;;;0.73;;
30181;SDS011;16990;49.056;9.240;2022-07-26T12:47:22;2.83;;;0.90;;
30181;SDS011;16990;49.056;9.240;2022-07-26T12:49:51;2.47;;;0.90;;
30181;SDS011;16990;49.056;9.240;2022-07-26T12:52:19;1.90;;;0.75;;
30181;SDS011;16990;49.056;9.240;2022-07-26T12:54:47;1.75;;;0.77;;
30181;SDS011;16990;49.056;9.240;2022-07-26T12:57:15;2.00;;;0.60;;
30181;SDS011;16990;49.056;9.240;2022-07-26T12:59:43;2.75;;;0.75;;
30181;SDS011;16990;49.056;9.240;2022-07-26T13:02:10;1.00;;;0.70;;
30181;SDS011;16990;49.056;9.240;2022-07-26T13:04:37;1.38;;;0.85;;
30181;SDS011;16990;49.056;9.240;2022-07-26T13:07:05;2.00;;;0.70;;
30181;SDS011;16990;49.056;9.240;2022-07-26T13:09:32;2.08;;;0.80;;
30181;SDS011;16990;49.056;9.240;2022-07-26T13:11:59;3.47;;;0.88;;
30181;SDS011;16990;49.056;9.240;2022-07-26T13:14:26;1.48;;;0.80;;
30181;SDS011;16990;49.056;9.240;2022-07-26T13:16:53;3.03;;;0.80;;
30181;SDS011;16990;49.056;9.240;2022-07-26T13:19:20;2.92;;;0.80;;
30181;SDS011;16990;49.056;9.240;2022-07-26T13:21:46;1.77;;;0.80;;
30181;SDS011;16990;49.056;9.240;2022-07-26T13:24:15;2.25;;;0.80;;
30181;SDS011;16990;49.056;9.240;2022-07-26T13:26:41;2.28;;;1.33;;
30181;SDS011;16990;49.056;9.240;2022-07-26T13:29:08;7.00;;;0.80;;
30181;SDS011;16990;49.056;9.240;2022-07-26T13:31:35;2.95;;;0.82;;
30181;SDS011;16990;49.056;9.240;2022-07-26T13:34:02;2.55;;;1.05;;
30181;SDS011;16990;49.056;9.240;2022-07-26T13:36:29;1.23;;;0.70;;
30181;SDS011;16990;49.056;9.240;2022-07-26T13:38:56;2.40;;;0.90;;
30181;SDS011;16990;49.056;9.240;2022-07-26T13:41:24;4.38;;;0.63;;
30181;SDS011;16990;49.056;9.240;2022-07-26T13:43:51;2.38;;;1.00;;
30181;SDS011;16990;49.056;9.240;2022-07-26T13:46:18;1.98;;;0.70;;
30181;SDS011;16990;49.056;9.240;2022-07-26T13:48:45;2.78;;;0.57;;
30181;SDS011;16990;49.056;9.240;2022-07-26T13:51:11;3.95;;;0.70;;
30181;SDS011;16990;49.056;9.240;2022-07-26T13:53:38;3.90;;;0.82;;
30181;SDS011;16990;49.056;9.240;2022-07-26T13:56:05;1.73;;;0.77;;
30181;SDS011;16990;49.056;9.240;2022-07-26T13:58:34;1.02;;;0.80;;
30181;SDS011;16990;49.056;9.240;2022-07-26T14:01:01;6.78;;;0.98;;
30181;SDS011;16990;49.056;9.240;2022-07-26T14:03:28;3.85;;;0.90;;
30181;SDS011;16990;49.056;9.240;2022-07-26T14:05:55;4.18;;;1.10;;
30181;SDS011;16990;49.056;9.240;2022-07-26T14:08:21;0.57;;;0.57;;
30181;SDS011;16990;49.056;9.240;2022-07-26T14:10:48;2.30;;;0.80;;
30181;SDS011;16990;49.056;9.240;2022-07-26T14:13:15;2.47;;;0.80;;
30181;SDS011;16990;49.056;9.240;2022-07-26T14:15:43;1.25;;;0.70;;
30181;SDS011;16990;49.056;9.240;2022-07-26T14:18:09;1.95;;;0.65;;
30181;SDS011;16990;49.056;9.240;2022-07-26T14:20:36;6.68;;;1.45;;
30181;SDS011;16990;49.056;9.240;2022-07-26T14:23:03;5.68;;;0.90;;
30181;SDS011;16990;49.056;9.240;2022-07-26T14:25:29;1.85;;;0.75;;
30181;SDS011;16990;49.056;9.240;2022-07-26T14:27:56;1.05;;;0.60;;
30181;SDS011;16990;49.056;9.240;2022-07-26T14:30:24;1.00;;;0.80;;
30181;SDS011;16990;49.056;9.240;2022-07-26T14:32:52;3.92;;;0.70;;
30181;SDS011;16990;49.056;9.240;2022-07-26T14:35:19;2.40;;;0.70;;
30181;SDS011;16990;49.056;9.240;2022-07-26T14:37:46;4.22;;;1.20;;
30181;SDS011;16990;49.056;9.240;2022-07-26T14:40:13;3.25;;;0.80;;
30181;SDS011;16990;49.056;9.240;2022-07-26T14:42:41;5.38;;;0.70;;
30181;SDS011;16990;49.056;9.240;2022-07-26T14:45:09;2.15;;;0.68;;
30181;SDS011;16990;49.056;9.240;2022-07-26T14:47:37;4.40;;;0.80;;
30181;SDS011;16990;49.056;9.240;2022-07-26T14:50:06;1.52;;;0.63;;
30181;SDS011;16990;49.056;9.240;2022-07-26T14:52:35;4.07;;;1.00;;
30181;SDS011;16990;49.056;9.240;2022-07-26T14:55:02;1.63;;;0.90;;
30181;SDS011;16990;49.056;9.240;2022-07-26T14:57:29;0.57;;;0.52;;
30181;SDS011;16990;49.056;9.240;2022-07-26T14:59:56;2.33;;;0.70;;
30181;SDS011;16990;49.056;9.240;2022-07-26T15:02:23;6.78;;;0.90;;